首页
METAR-TAF:

METAR-TAF

机场 :

默特尔比奇, 南卡罗来纳州, 美国

纬度: 33-41N, 经度: 078-56W, 海拔: 8米

当前天气观测

该预报发布于10分钟前的03:56 UTC
风速6节,风向南转西南
温度 24°C
湿度 89%
气压 1017 hPa
能見度: 16.1公里
散云层高于3000英尺
多云层高于12000英尺

METAR: KMYR 140356Z AUTO 21006KT 10SM SCT030 BKN120 24/22 A3004 RMK AO2 SLP172 T02440217

时间: 00:06 (04:06 UTC)

预报

该预报发布于4小时和46分钟前的23:20 UTC
预报有效从14日的 00点(UTC)到 14日的 24点(UTC)
风速10节,风向南转西南
能見度: 10公里
多云层高于6000英尺
附近有阵雨
从 14日的 1200点(UTC)
风速6节,风向西转西南
能見度: 6.4公里
多云层高于4500英尺
轻雾
从 14日的 1500点(UTC)
风速6节,风向西
能見度: 10公里
多云层高于4500英尺
附近有阵雨
从 14日的 1900点(UTC)
风速6节,风向西南
能見度: 9.7公里
散云层高于25000英尺

TAF: KMYR 132320Z 1400/1424 21010KT P6SM VCSH BKN060 FM141200 25006KT 4SM BR BKN045 FM141500 27006KT P6SM VCSH BKN045 FM141900 22006KT 6SM HZ SCT250

超过4000个机场的气象观测和天气预报(METAR&TAF报告)。

可查询的气象台以黄色和红色小点在地图上表示。

将鼠标移到小点上方,可查看气象台名称。

然后点击查看天气观测和预报。

如需切换地图:点击带黑十字的绿色按钮放大地图;点击带横线的绿色按钮缩小地图;或者点击绿色箭头查看邻近地区的地图。


METAR-TAF: